sensor_id;sensor_type;location;lat;lon;timestamp;P1;durP1;ratioP1;P2;durP2;ratioP2
57790;SDS011;43621;51.798;21.588;2022-11-14T00:03:30;23.40;;;14.10;;
57790;SDS011;43621;51.798;21.588;2022-11-14T00:07:35;26.30;;;16.30;;
57790;SDS011;43621;51.798;21.588;2022-11-14T00:11:40;24.10;;;14.60;;
57790;SDS011;43621;51.798;21.588;2022-11-14T00:15:46;26.30;;;14.30;;
57790;SDS011;43621;51.798;21.588;2022-11-14T00:19:52;25.00;;;15.10;;
57790;SDS011;43621;51.798;21.588;2022-11-14T00:23:57;25.80;;;15.70;;
57790;SDS011;43621;51.798;21.588;2022-11-14T00:28:02;28.30;;;16.80;;
57790;SDS011;43621;51.798;21.588;2022-11-14T00:32:07;27.60;;;15.30;;
57790;SDS011;43621;51.798;21.588;2022-11-14T00:36:12;25.90;;;15.40;;
57790;SDS011;43621;51.798;21.588;2022-11-14T00:40:17;24.00;;;15.10;;
57790;SDS011;43621;51.798;21.588;2022-11-14T00:44:22;26.30;;;16.20;;
57790;SDS011;43621;51.798;21.588;2022-11-14T00:48:28;28.40;;;16.40;;
57790;SDS011;43621;51.798;21.588;2022-11-14T00:52:33;25.20;;;15.00;;
57790;SDS011;43621;51.798;21.588;2022-11-14T00:56:39;25.40;;;15.70;;
57790;SDS011;43621;51.798;21.588;2022-11-14T01:00:44;28.80;;;16.80;;
57790;SDS011;43621;51.798;21.588;2022-11-14T01:04:49;28.00;;;16.40;;
57790;SDS011;43621;51.798;21.588;2022-11-14T01:08:54;30.10;;;16.10;;
57790;SDS011;43621;51.798;21.588;2022-11-14T01:12:59;27.90;;;16.10;;
57790;SDS011;43621;51.798;21.588;2022-11-14T01:17:04;32.70;;;18.00;;
57790;SDS011;43621;51.798;21.588;2022-11-14T01:21:10;34.90;;;21.10;;
57790;SDS011;43621;51.798;21.588;2022-11-14T01:25:15;38.30;;;23.40;;
57790;SDS011;43621;51.798;21.588;2022-11-14T01:29:20;33.40;;;20.00;;
57790;SDS011;43621;51.798;21.588;2022-11-14T01:33:26;32.20;;;19.40;;
57790;SDS011;43621;51.798;21.588;2022-11-14T01:37:31;30.10;;;18.90;;
57790;SDS011;43621;51.798;21.588;2022-11-14T01:41:36;34.10;;;18.90;;
57790;SDS011;43621;51.798;21.588;2022-11-14T01:45:49;31.40;;;18.00;;
57790;SDS011;43621;51.798;21.588;2022-11-14T01:49:57;30.60;;;18.00;;
57790;SDS011;43621;51.798;21.588;2022-11-14T01:54:07;35.40;;;19.20;;
57790;SDS011;43621;51.798;21.588;2022-11-14T01:58:16;30.50;;;17.50;;
57790;SDS011;43621;51.798;21.588;2022-11-14T02:02:23;32.70;;;18.20;;
57790;SDS011;43621;51.798;21.588;2022-11-14T02:06:29;31.60;;;17.80;;
57790;SDS011;43621;51.798;21.588;2022-11-14T02:10:35;30.80;;;18.40;;
57790;SDS011;43621;51.798;21.588;2022-11-14T02:14:40;28.80;;;17.70;;
57790;SDS011;43621;51.798;21.588;2022-11-14T02:18:47;33.40;;;18.70;;
57790;SDS011;43621;51.798;21.588;2022-11-14T02:22:52;27.80;;;17.30;;
57790;SDS011;43621;51.798;21.588;2022-11-14T02:26:57;27.20;;;16.90;;
57790;SDS011;43621;51.798;21.588;2022-11-14T02:31:03;28.80;;;16.90;;
57790;SDS011;43621;51.798;21.588;2022-11-14T02:35:08;26.00;;;16.40;;
57790;SDS011;43621;51.798;21.588;2022-11-14T02:39:13;29.80;;;18.00;;
57790;SDS011;43621;51.798;21.588;2022-11-14T02:43:18;26.40;;;15.80;;
57790;SDS011;43621;51.798;21.588;2022-11-14T02:47:23;28.20;;;16.30;;
57790;SDS011;43621;51.798;21.588;2022-11-14T02:51:28;29.40;;;16.10;;
57790;SDS011;43621;51.798;21.588;2022-11-14T02:55:33;24.10;;;14.40;;
57790;SDS011;43621;51.798;21.588;2022-11-14T02:59:38;30.40;;;16.10;;
57790;SDS011;43621;51.798;21.588;2022-11-14T03:03:43;24.70;;;15.10;;
57790;SDS011;43621;51.798;21.588;2022-11-14T03:07:48;25.30;;;16.20;;
57790;SDS011;43621;51.798;21.588;2022-11-14T03:11:57;26.10;;;16.90;;
57790;SDS011;43621;51.798;21.588;2022-11-14T03:16:05;29.70;;;18.00;;
57790;SDS011;43621;51.798;21.588;2022-11-14T03:20:11;33.20;;;16.80;;
57790;SDS011;43621;51.798;21.588;2022-11-14T03:24:16;26.30;;;16.40;;
57790;SDS011;43621;51.798;21.588;2022-11-14T03:28:21;28.70;;;17.90;;
57790;SDS011;43621;51.798;21.588;2022-11-14T03:32:26;30.60;;;18.40;;
57790;SDS011;43621;51.798;21.588;2022-11-14T03:36:32;28.80;;;17.90;;
57790;SDS011;43621;51.798;21.588;2022-11-14T03:40:39;32.30;;;16.80;;
57790;SDS011;43621;51.798;21.588;2022-11-14T03:44:44;26.00;;;16.00;;
57790;SDS011;43621;51.798;21.588;2022-11-14T03:48:49;22.50;;;15.50;;
57790;SDS011;43621;51.798;21.588;2022-11-14T03:52:54;23.60;;;14.00;;
57790;SDS011;43621;51.798;21.588;2022-11-14T03:56:59;22.60;;;13.80;;
57790;SDS011;43621;51.798;21.588;2022-11-14T04:01:04;23.10;;;14.00;;
57790;SDS011;43621;51.798;21.588;2022-11-14T04:05:09;22.20;;;13.70;;
57790;SDS011;43621;51.798;21.588;2022-11-14T04:09:15;22.80;;;14.60;;
57790;SDS011;43621;51.798;21.588;2022-11-14T04:13:20;20.70;;;12.90;;
57790;SDS011;43621;51.798;21.588;2022-11-14T04:17:25;21.50;;;12.80;;
57790;SDS011;43621;51.798;21.588;2022-11-14T04:21:30;24.40;;;15.90;;
57790;SDS011;43621;51.798;21.588;2022-11-14T04:25:35;30.20;;;20.00;;
57790;SDS011;43621;51.798;21.588;2022-11-14T04:29:40;27.80;;;19.90;;
57790;SDS011;43621;51.798;21.588;2022-11-14T04:33:45;26.40;;;19.30;;
57790;SDS011;43621;51.798;21.588;2022-11-14T04:37:50;22.60;;;15.00;;
57790;SDS011;43621;51.798;21.588;2022-11-14T04:41:55;21.20;;;13.00;;
57790;SDS011;43621;51.798;21.588;2022-11-14T04:46:00;21.80;;;11.60;;
57790;SDS011;43621;51.798;21.588;2022-11-14T04:50:05;18.90;;;11.60;;
57790;SDS011;43621;51.798;21.588;2022-11-14T04:54:11;17.20;;;11.70;;
57790;SDS011;43621;51.798;21.588;2022-11-14T04:58:16;17.80;;;10.80;;
57790;SDS011;43621;51.798;21.588;2022-11-14T05:02:21;19.40;;;11.90;;
57790;SDS011;43621;51.798;21.588;2022-11-14T05:06:26;16.90;;;11.10;;
57790;SDS011;43621;51.798;21.588;2022-11-14T05:10:31;17.40;;;11.40;;
57790;SDS011;43621;51.798;21.588;2022-11-14T05:14:36;16.90;;;10.70;;
57790;SDS011;43621;51.798;21.588;2022-11-14T05:18:41;17.40;;;10.70;;
57790;SDS011;43621;51.798;21.588;2022-11-14T05:22:46;18.20;;;12.30;;
57790;SDS011;43621;51.798;21.588;2022-11-14T05:26:54;18.20;;;12.00;;
57790;SDS011;43621;51.798;21.588;2022-11-14T05:31:01;19.40;;;12.30;;
57790;SDS011;43621;51.798;21.588;2022-11-14T05:35:07;21.70;;;13.10;;
57790;SDS011;43621;51.798;21.588;2022-11-14T05:39:12;21.00;;;12.60;;
57790;SDS011;43621;51.798;21.588;2022-11-14T05:43:17;18.40;;;11.40;;
57790;SDS011;43621;51.798;21.588;2022-11-14T05:47:22;19.90;;;12.50;;
57790;SDS011;43621;51.798;21.588;2022-11-14T05:51:27;25.70;;;11.30;;
57790;SDS011;43621;51.798;21.588;2022-11-14T05:55:32;19.20;;;11.40;;
57790;SDS011;43621;51.798;21.588;2022-11-14T05:59:37;19.40;;;12.20;;
57790;SDS011;43621;51.798;21.588;2022-11-14T06:03:43;19.20;;;12.60;;
57790;SDS011;43621;51.798;21.588;2022-11-14T06:07:54;14.20;;;10.10;;
57790;SDS011;43621;51.798;21.588;2022-11-14T06:12:00;21.00;;;12.90;;
57790;SDS011;43621;51.798;21.588;2022-11-14T06:16:09;13.40;;;8.90;;
57790;SDS011;43621;51.798;21.588;2022-11-14T06:20:15;15.10;;;10.40;;
57790;SDS011;43621;51.798;21.588;2022-11-14T06:24:20;17.20;;;10.20;;
57790;SDS011;43621;51.798;21.588;2022-11-14T06:28:25;19.30;;;11.30;;
57790;SDS011;43621;51.798;21.588;2022-11-14T06:32:30;12.60;;;8.30;;
57790;SDS011;43621;51.798;21.588;2022-11-14T06:36:35;13.60;;;8.90;;
57790;SDS011;43621;51.798;21.588;2022-11-14T06:40:40;12.80;;;7.90;;
57790;SDS011;43621;51.798;21.588;2022-11-14T06:44:45;13.20;;;8.50;;
57790;SDS011;43621;51.798;21.588;2022-11-14T06:48:50;13.90;;;9.60;;
57790;SDS011;43621;51.798;21.588;2022-11-14T06:52:57;13.80;;;8.40;;
57790;SDS011;43621;51.798;21.588;2022-11-14T06:57:02;12.20;;;7.90;;
57790;SDS011;43621;51.798;21.588;2022-11-14T07:01:10;14.20;;;8.40;;
57790;SDS011;43621;51.798;21.588;2022-11-14T07:05:16;10.60;;;7.50;;
57790;SDS011;43621;51.798;21.588;2022-11-14T07:09:21;11.90;;;7.50;;
57790;SDS011;43621;51.798;21.588;2022-11-14T07:13:26;11.60;;;7.40;;
57790;SDS011;43621;51.798;21.588;2022-11-14T07:17:32;11.00;;;7.10;;
57790;SDS011;43621;51.798;21.588;2022-11-14T07:21:38;9.30;;;6.30;;
57790;SDS011;43621;51.798;21.588;2022-11-14T07:25:43;9.80;;;5.30;;
57790;SDS011;43621;51.798;21.588;2022-11-14T07:29:48;8.90;;;5.50;;
57790;SDS011;43621;51.798;21.588;2022-11-14T07:33:53;11.60;;;7.10;;
57790;SDS011;43621;51.798;21.588;2022-11-14T07:38:01;13.40;;;6.60;;
57790;SDS011;43621;51.798;21.588;2022-11-14T07:42:07;11.10;;;6.40;;
57790;SDS011;43621;51.798;21.588;2022-11-14T07:46:12;10.50;;;6.50;;
57790;SDS011;43621;51.798;21.588;2022-11-14T07:50:19;7.60;;;5.40;;
57790;SDS011;43621;51.798;21.588;2022-11-14T07:54:24;8.70;;;5.00;;
57790;SDS011;43621;51.798;21.588;2022-11-14T07:58:29;9.70;;;5.30;;
57790;SDS011;43621;51.798;21.588;2022-11-14T08:02:36;6.70;;;4.40;;
57790;SDS011;43621;51.798;21.588;2022-11-14T08:06:41;9.10;;;5.70;;
57790;SDS011;43621;51.798;21.588;2022-11-14T08:10:46;8.00;;;5.50;;
57790;SDS011;43621;51.798;21.588;2022-11-14T08:14:51;9.00;;;6.00;;
57790;SDS011;43621;51.798;21.588;2022-11-14T08:18:56;12.40;;;7.70;;
57790;SDS011;43621;51.798;21.588;2022-11-14T08:23:02;19.80;;;10.60;;
57790;SDS011;43621;51.798;21.588;2022-11-14T08:27:09;21.00;;;10.90;;
57790;SDS011;43621;51.798;21.588;2022-11-14T08:31:14;24.30;;;12.90;;
57790;SDS011;43621;51.798;21.588;2022-11-14T08:35:19;29.50;;;15.40;;
57790;SDS011;43621;51.798;21.588;2022-11-14T08:39:24;28.70;;;16.10;;
57790;SDS011;43621;51.798;21.588;2022-11-14T08:43:29;28.80;;;17.40;;
57790;SDS011;43621;51.798;21.588;2022-11-14T08:47:35;29.40;;;15.90;;
57790;SDS011;43621;51.798;21.588;2022-11-14T08:51:40;33.00;;;17.20;;
57790;SDS011;43621;51.798;21.588;2022-11-14T08:55:45;29.50;;;16.60;;
57790;SDS011;43621;51.798;21.588;2022-11-14T08:59:50;29.30;;;15.30;;
57790;SDS011;43621;51.798;21.588;2022-11-14T09:03:57;29.50;;;16.20;;
57790;SDS011;43621;51.798;21.588;2022-11-14T09:08:02;32.20;;;16.00;;
57790;SDS011;43621;51.798;21.588;2022-11-14T09:12:08;29.30;;;17.40;;
57790;SDS011;43621;51.798;21.588;2022-11-14T09:16:13;26.30;;;13.60;;
57790;SDS011;43621;51.798;21.588;2022-11-14T09:20:18;11.60;;;7.80;;
57790;SDS011;43621;51.798;21.588;2022-11-14T09:24:23;17.50;;;10.10;;
57790;SDS011;43621;51.798;21.588;2022-11-14T09:28:28;17.30;;;10.70;;
57790;SDS011;43621;51.798;21.588;2022-11-14T09:32:33;15.00;;;10.70;;
57790;SDS011;43621;51.798;21.588;2022-11-14T09:36:38;14.90;;;10.40;;
57790;SDS011;43621;51.798;21.588;2022-11-14T09:40:46;11.40;;;8.40;;
57790;SDS011;43621;51.798;21.588;2022-11-14T09:45:03;12.50;;;8.60;;
57790;SDS011;43621;51.798;21.588;2022-11-14T09:49:18;12.00;;;8.70;;
57790;SDS011;43621;51.798;21.588;2022-11-14T09:53:30;14.00;;;9.20;;
57790;SDS011;43621;51.798;21.588;2022-11-14T09:57:38;15.80;;;9.20;;
57790;SDS011;43621;51.798;21.588;2022-11-14T10:01:48;13.90;;;9.40;;
57790;SDS011;43621;51.798;21.588;2022-11-14T10:06:02;18.40;;;12.10;;
57790;SDS011;43621;51.798;21.588;2022-11-14T10:10:24;21.60;;;13.80;;
57790;SDS011;43621;51.798;21.588;2022-11-14T10:14:44;27.80;;;16.60;;
57790;SDS011;43621;51.798;21.588;2022-11-14T10:19:11;41.70;;;24.20;;
57790;SDS011;43621;51.798;21.588;2022-11-14T10:23:30;31.90;;;19.90;;
57790;SDS011;43621;51.798;21.588;2022-11-14T10:27:44;33.10;;;20.10;;
57790;SDS011;43621;51.798;21.588;2022-11-14T10:31:59;41.00;;;24.10;;
57790;SDS011;43621;51.798;21.588;2022-11-14T10:36:18;44.90;;;26.20;;
57790;SDS011;43621;51.798;21.588;2022-11-14T10:40:35;44.90;;;24.40;;
57790;SDS011;43621;51.798;21.588;2022-11-14T10:44:46;45.00;;;24.30;;
57790;SDS011;43621;51.798;21.588;2022-11-14T10:48:55;51.10;;;28.50;;
57790;SDS011;43621;51.798;21.588;2022-11-14T10:53:02;39.60;;;21.60;;
57790;SDS011;43621;51.798;21.588;2022-11-14T10:57:16;35.60;;;20.40;;
57790;SDS011;43621;51.798;21.588;2022-11-14T11:01:32;34.00;;;20.60;;
57790;SDS011;43621;51.798;21.588;2022-11-14T11:05:45;35.00;;;21.80;;
57790;SDS011;43621;51.798;21.588;2022-11-14T11:09:57;32.40;;;19.70;;
57790;SDS011;43621;51.798;21.588;2022-11-14T11:14:21;27.10;;;15.90;;
57790;SDS011;43621;51.798;21.588;2022-11-14T11:18:28;26.20;;;16.30;;
57790;SDS011;43621;51.798;21.588;2022-11-14T11:22:37;28.00;;;16.10;;
57790;SDS011;43621;51.798;21.588;2022-11-14T11:26:42;27.50;;;15.70;;
57790;SDS011;43621;51.798;21.588;2022-11-14T11:30:54;33.60;;;19.60;;
57790;SDS011;43621;51.798;21.588;2022-11-14T11:35:01;33.70;;;21.50;;
57790;SDS011;43621;51.798;21.588;2022-11-14T11:39:15;41.10;;;24.50;;
57790;SDS011;43621;51.798;21.588;2022-11-14T11:43:28;41.30;;;23.90;;
57790;SDS011;43621;51.798;21.588;2022-11-14T11:47:38;40.60;;;25.20;;
57790;SDS011;43621;51.798;21.588;2022-11-14T11:51:45;36.50;;;23.20;;
57790;SDS011;43621;51.798;21.588;2022-11-14T11:55:53;44.80;;;26.20;;
57790;SDS011;43621;51.798;21.588;2022-11-14T12:00:04;54.10;;;29.30;;
57790;SDS011;43621;51.798;21.588;2022-11-14T12:04:16;43.10;;;27.50;;
57790;SDS011;43621;51.798;21.588;2022-11-14T12:08:25;41.30;;;25.60;;
57790;SDS011;43621;51.798;21.588;2022-11-14T12:12:47;45.20;;;27.30;;
57790;SDS011;43621;51.798;21.588;2022-11-14T12:17:13;41.10;;;25.90;;
57790;SDS011;43621;51.798;21.588;2022-11-14T12:21:52;37.50;;;24.20;;
57790;SDS011;43621;51.798;21.588;2022-11-14T12:26:21;42.30;;;26.30;;
57790;SDS011;43621;51.798;21.588;2022-11-14T12:30:47;38.70;;;25.70;;
57790;SDS011;43621;51.798;21.588;2022-11-14T12:34:58;43.10;;;26.70;;
57790;SDS011;43621;51.798;21.588;2022-11-14T12:39:18;40.50;;;26.10;;
57790;SDS011;43621;51.798;21.588;2022-11-14T12:43:29;41.40;;;27.50;;
57790;SDS011;43621;51.798;21.588;2022-11-14T12:47:37;43.40;;;27.40;;
57790;SDS011;43621;51.798;21.588;2022-11-14T12:56:56;39.80;;;24.70;;
57790;SDS011;43621;51.798;21.588;2022-11-14T13:01:18;51.60;;;31.80;;
57790;SDS011;43621;51.798;21.588;2022-11-14T13:05:47;48.80;;;27.90;;
57790;SDS011;43621;51.798;21.588;2022-11-14T13:10:13;38.30;;;25.00;;
57790;SDS011;43621;51.798;21.588;2022-11-14T13:14:30;30.30;;;20.80;;
57790;SDS011;43621;51.798;21.588;2022-11-14T13:19:13;34.60;;;22.20;;
57790;SDS011;43621;51.798;21.588;2022-11-14T13:23:54;35.90;;;23.60;;
57790;SDS011;43621;51.798;21.588;2022-11-14T13:28:09;37.10;;;27.40;;
57790;SDS011;43621;51.798;21.588;2022-11-14T13:32:52;44.40;;;32.10;;
57790;SDS011;43621;51.798;21.588;2022-11-14T13:36:58;43.70;;;32.80;;
57790;SDS011;43621;51.798;21.588;2022-11-14T13:41:23;38.50;;;28.50;;
57790;SDS011;43621;51.798;21.588;2022-11-14T13:45:38;39.20;;;27.20;;
57790;SDS011;43621;51.798;21.588;2022-11-14T13:49:55;35.80;;;27.40;;
57790;SDS011;43621;51.798;21.588;2022-11-14T13:54:10;39.50;;;27.20;;
57790;SDS011;43621;51.798;21.588;2022-11-14T13:58:20;37.50;;;26.00;;
57790;SDS011;43621;51.798;21.588;2022-11-14T14:02:41;57.30;;;36.00;;
57790;SDS011;43621;51.798;21.588;2022-11-14T14:07:04;43.90;;;29.70;;
57790;SDS011;43621;51.798;21.588;2022-11-14T14:11:21;36.20;;;26.40;;
57790;SDS011;43621;51.798;21.588;2022-11-14T14:15:37;37.40;;;28.70;;
57790;SDS011;43621;51.798;21.588;2022-11-14T14:19:52;27.10;;;19.10;;
57790;SDS011;43621;51.798;21.588;2022-11-14T14:24:08;51.30;;;35.40;;
57790;SDS011;43621;51.798;21.588;2022-11-14T14:28:36;47.20;;;33.40;;
57790;SDS011;43621;51.798;21.588;2022-11-14T14:33:09;42.60;;;27.60;;
57790;SDS011;43621;51.798;21.588;2022-11-14T14:37:18;41.00;;;25.70;;
57790;SDS011;43621;51.798;21.588;2022-11-14T14:41:24;45.60;;;27.60;;
57790;SDS011;43621;51.798;21.588;2022-11-14T14:45:35;50.40;;;30.60;;
57790;SDS011;43621;51.798;21.588;2022-11-14T14:49:49;63.10;;;38.10;;
57790;SDS011;43621;51.798;21.588;2022-11-14T14:53:54;63.50;;;41.20;;
57790;SDS011;43621;51.798;21.588;2022-11-14T14:58:12;76.30;;;50.20;;
57790;SDS011;43621;51.798;21.588;2022-11-14T15:02:25;89.20;;;55.80;;
57790;SDS011;43621;51.798;21.588;2022-11-14T15:06:33;123.20;;;71.40;;
57790;SDS011;43621;51.798;21.588;2022-11-14T15:10:40;53.40;;;33.40;;
57790;SDS011;43621;51.798;21.588;2022-11-14T15:14:46;50.10;;;31.00;;
57790;SDS011;43621;51.798;21.588;2022-11-14T15:18:52;30.90;;;20.30;;
57790;SDS011;43621;51.798;21.588;2022-11-14T15:23:05;39.60;;;24.80;;
57790;SDS011;43621;51.798;21.588;2022-11-14T15:27:21;44.30;;;27.10;;
57790;SDS011;43621;51.798;21.588;2022-11-14T15:31:25;119.30;;;59.80;;
57790;SDS011;43621;51.798;21.588;2022-11-14T15:35:31;52.30;;;33.40;;
57790;SDS011;43621;51.798;21.588;2022-11-14T15:39:38;59.00;;;37.90;;
57790;SDS011;43621;51.798;21.588;2022-11-14T15:43:47;49.00;;;31.30;;
57790;SDS011;43621;51.798;21.588;2022-11-14T15:47:58;82.20;;;50.30;;
57790;SDS011;43621;51.798;21.588;2022-11-14T15:52:15;48.90;;;30.40;;
57790;SDS011;43621;51.798;21.588;2022-11-14T15:56:25;52.70;;;36.10;;
57790;SDS011;43621;51.798;21.588;2022-11-14T16:00:30;80.70;;;50.50;;
57790;SDS011;43621;51.798;21.588;2022-11-14T16:04:36;82.70;;;49.50;;
57790;SDS011;43621;51.798;21.588;2022-11-14T16:08:41;69.50;;;43.30;;
57790;SDS011;43621;51.798;21.588;2022-11-14T16:12:47;49.40;;;30.30;;
57790;SDS011;43621;51.798;21.588;2022-11-14T16:16:52;50.00;;;35.00;;
57790;SDS011;43621;51.798;21.588;2022-11-14T16:20:57;43.40;;;29.20;;
57790;SDS011;43621;51.798;21.588;2022-11-14T16:25:02;59.70;;;35.40;;
57790;SDS011;43621;51.798;21.588;2022-11-14T16:29:09;47.30;;;28.90;;
57790;SDS011;43621;51.798;21.588;2022-11-14T16:33:14;45.30;;;27.20;;
57790;SDS011;43621;51.798;21.588;2022-11-14T16:37:19;50.90;;;32.60;;
57790;SDS011;43621;51.798;21.588;2022-11-14T16:41:24;46.50;;;28.50;;
57790;SDS011;43621;51.798;21.588;2022-11-14T16:45:29;44.50;;;28.10;;
57790;SDS011;43621;51.798;21.588;2022-11-14T16:49:34;53.00;;;36.70;;
57790;SDS011;43621;51.798;21.588;2022-11-14T16:53:39;54.60;;;34.60;;
57790;SDS011;43621;51.798;21.588;2022-11-14T16:57:44;63.00;;;35.60;;
57790;SDS011;43621;51.798;21.588;2022-11-14T17:01:51;56.70;;;31.80;;
57790;SDS011;43621;51.798;21.588;2022-11-14T17:05:56;45.90;;;28.60;;
57790;SDS011;43621;51.798;21.588;2022-11-14T17:10:01;50.80;;;30.60;;
57790;SDS011;43621;51.798;21.588;2022-11-14T17:14:06;55.00;;;30.60;;
57790;SDS011;43621;51.798;21.588;2022-11-14T17:18:12;45.50;;;27.30;;
57790;SDS011;43621;51.798;21.588;2022-11-14T17:22:17;46.90;;;29.10;;
57790;SDS011;43621;51.798;21.588;2022-11-14T17:26:22;54.80;;;31.50;;
57790;SDS011;43621;51.798;21.588;2022-11-14T17:30:27;58.30;;;32.80;;
57790;SDS011;43621;51.798;21.588;2022-11-14T17:34:32;55.30;;;31.80;;
57790;SDS011;43621;51.798;21.588;2022-11-14T17:38:37;72.30;;;39.30;;
57790;SDS011;43621;51.798;21.588;2022-11-14T17:42:42;70.80;;;39.10;;
57790;SDS011;43621;51.798;21.588;2022-11-14T17:46:47;91.10;;;49.50;;
57790;SDS011;43621;51.798;21.588;2022-11-14T17:50:52;59.20;;;36.80;;
57790;SDS011;43621;51.798;21.588;2022-11-14T17:54:58;81.00;;;49.00;;
57790;SDS011;43621;51.798;21.588;2022-11-14T17:59:03;78.40;;;42.10;;
57790;SDS011;43621;51.798;21.588;2022-11-14T18:03:08;72.70;;;41.50;;
57790;SDS011;43621;51.798;21.588;2022-11-14T18:07:13;62.50;;;36.40;;
57790;SDS011;43621;51.798;21.588;2022-11-14T18:11:18;47.60;;;29.60;;
57790;SDS011;43621;51.798;21.588;2022-11-14T18:15:23;52.30;;;32.00;;
57790;SDS011;43621;51.798;21.588;2022-11-14T18:23:33;74.80;;;41.60;;
57790;SDS011;43621;51.798;21.588;2022-11-14T18:27:40;71.30;;;39.80;;
57790;SDS011;43621;51.798;21.588;2022-11-14T18:31:46;64.70;;;39.50;;
57790;SDS011;43621;51.798;21.588;2022-11-14T18:35:57;89.90;;;51.40;;
57790;SDS011;43621;51.798;21.588;2022-11-14T18:44:07;123.30;;;71.30;;
57790;SDS011;43621;51.798;21.588;2022-11-14T18:48:12;88.70;;;53.10;;
57790;SDS011;43621;51.798;21.588;2022-11-14T18:52:17;79.90;;;47.60;;
57790;SDS011;43621;51.798;21.588;2022-11-14T18:56:22;56.60;;;35.70;;
57790;SDS011;43621;51.798;21.588;2022-11-14T19:00:28;73.70;;;42.90;;
57790;SDS011;43621;51.798;21.588;2022-11-14T19:04:33;132.10;;;49.20;;
57790;SDS011;43621;51.798;21.588;2022-11-14T19:08:38;70.50;;;37.30;;
57790;SDS011;43621;51.798;21.588;2022-11-14T19:12:46;54.40;;;36.20;;
57790;SDS011;43621;51.798;21.588;2022-11-14T19:16:52;76.20;;;44.80;;
57790;SDS011;43621;51.798;21.588;2022-11-14T19:20:57;83.60;;;49.00;;
57790;SDS011;43621;51.798;21.588;2022-11-14T19:25:05;77.30;;;36.90;;
57790;SDS011;43621;51.798;21.588;2022-11-14T19:29:11;43.10;;;28.80;;
57790;SDS011;43621;51.798;21.588;2022-11-14T19:33:16;62.60;;;37.90;;
57790;SDS011;43621;51.798;21.588;2022-11-14T19:37:21;55.90;;;31.20;;
57790;SDS011;43621;51.798;21.588;2022-11-14T19:41:27;54.20;;;30.40;;
57790;SDS011;43621;51.798;21.588;2022-11-14T19:45:33;53.60;;;31.50;;
57790;SDS011;43621;51.798;21.588;2022-11-14T19:49:38;68.90;;;37.50;;
57790;SDS011;43621;51.798;21.588;2022-11-14T19:53:45;69.40;;;35.80;;
57790;SDS011;43621;51.798;21.588;2022-11-14T19:57:50;44.90;;;26.70;;
57790;SDS011;43621;51.798;21.588;2022-11-14T20:01:56;85.40;;;42.50;;
57790;SDS011;43621;51.798;21.588;2022-11-14T20:06:01;65.60;;;33.40;;
57790;SDS011;43621;51.798;21.588;2022-11-14T20:10:14;48.30;;;28.40;;
57790;SDS011;43621;51.798;21.588;2022-11-14T20:14:19;59.50;;;31.20;;
57790;SDS011;43621;51.798;21.588;2022-11-14T20:18:24;59.10;;;33.30;;
57790;SDS011;43621;51.798;21.588;2022-11-14T20:22:31;64.50;;;34.60;;
57790;SDS011;43621;51.798;21.588;2022-11-14T20:26:36;64.80;;;33.00;;
57790;SDS011;43621;51.798;21.588;2022-11-14T20:30:41;50.60;;;30.60;;
57790;SDS011;43621;51.798;21.588;2022-11-14T20:34:46;56.80;;;30.50;;
57790;SDS011;43621;51.798;21.588;2022-11-14T20:38:51;44.10;;;25.20;;
57790;SDS011;43621;51.798;21.588;2022-11-14T20:43:00;49.80;;;27.60;;
57790;SDS011;43621;51.798;21.588;2022-11-14T20:47:05;42.90;;;25.90;;
57790;SDS011;43621;51.798;21.588;2022-11-14T20:51:11;54.10;;;34.20;;
57790;SDS011;43621;51.798;21.588;2022-11-14T20:55:17;46.10;;;27.30;;
57790;SDS011;43621;51.798;21.588;2022-11-14T20:59:22;35.50;;;21.10;;
57790;SDS011;43621;51.798;21.588;2022-11-14T21:03:27;51.40;;;29.80;;
57790;SDS011;43621;51.798;21.588;2022-11-14T21:07:33;38.70;;;22.40;;
57790;SDS011;43621;51.798;21.588;2022-11-14T21:11:38;36.10;;;22.00;;
57790;SDS011;43621;51.798;21.588;2022-11-14T21:15:43;39.60;;;24.10;;
57790;SDS011;43621;51.798;21.588;2022-11-14T21:19:48;38.50;;;23.00;;
57790;SDS011;43621;51.798;21.588;2022-11-14T21:23:53;37.70;;;21.70;;
57790;SDS011;43621;51.798;21.588;2022-11-14T21:27:59;39.00;;;21.70;;
57790;SDS011;43621;51.798;21.588;2022-11-14T21:32:04;36.20;;;21.00;;
57790;SDS011;43621;51.798;21.588;2022-11-14T21:36:09;24.80;;;16.00;;
57790;SDS011;43621;51.798;21.588;2022-11-14T21:40:16;30.20;;;17.30;;
57790;SDS011;43621;51.798;21.588;2022-11-14T21:44:21;28.50;;;17.50;;
57790;SDS011;43621;51.798;21.588;2022-11-14T21:48:27;36.20;;;20.00;;
57790;SDS011;43621;51.798;21.588;2022-11-14T21:52:35;30.50;;;19.30;;
57790;SDS011;43621;51.798;21.588;2022-11-14T21:56:40;32.60;;;20.60;;
57790;SDS011;43621;51.798;21.588;2022-11-14T22:00:45;40.60;;;24.30;;
57790;SDS011;43621;51.798;21.588;2022-11-14T22:04:50;43.70;;;24.50;;
57790;SDS011;43621;51.798;21.588;2022-11-14T22:08:55;29.10;;;18.10;;
57790;SDS011;43621;51.798;21.588;2022-11-14T22:13:00;30.00;;;18.80;;
57790;SDS011;43621;51.798;21.588;2022-11-14T22:17:05;31.20;;;18.60;;
57790;SDS011;43621;51.798;21.588;2022-11-14T22:21:09;30.50;;;18.30;;
57790;SDS011;43621;51.798;21.588;2022-11-14T22:25:15;28.20;;;17.30;;
57790;SDS011;43621;51.798;21.588;2022-11-14T22:29:20;27.30;;;17.90;;
57790;SDS011;43621;51.798;21.588;2022-11-14T22:33:25;27.10;;;17.20;;
57790;SDS011;43621;51.798;21.588;2022-11-14T22:37:33;27.00;;;17.10;;
57790;SDS011;43621;51.798;21.588;2022-11-14T22:41:38;33.10;;;19.20;;
57790;SDS011;43621;51.798;21.588;2022-11-14T22:45:44;28.00;;;18.50;;
57790;SDS011;43621;51.798;21.588;2022-11-14T22:49:54;31.50;;;19.30;;
57790;SDS011;43621;51.798;21.588;2022-11-14T22:53:59;32.80;;;20.10;;
57790;SDS011;43621;51.798;21.588;2022-11-14T22:58:05;31.70;;;19.70;;
57790;SDS011;43621;51.798;21.588;2022-11-14T23:02:10;30.90;;;19.80;;
57790;SDS011;43621;51.798;21.588;2022-11-14T23:06:15;35.80;;;22.50;;
57790;SDS011;43621;51.798;21.588;2022-11-14T23:10:21;35.20;;;22.60;;
57790;SDS011;43621;51.798;21.588;2022-11-14T23:14:26;35.20;;;22.40;;
57790;SDS011;43621;51.798;21.588;2022-11-14T23:18:31;39.40;;;23.10;;
57790;SDS011;43621;51.798;21.588;2022-11-14T23:22:36;36.20;;;21.40;;
57790;SDS011;43621;51.798;21.588;2022-11-14T23:26:43;35.70;;;22.40;;
57790;SDS011;43621;51.798;21.588;2022-11-14T23:30:48;34.10;;;22.50;;
57790;SDS011;43621;51.798;21.588;2022-11-14T23:34:53;39.90;;;25.00;;
57790;SDS011;43621;51.798;21.588;2022-11-14T23:38:58;42.40;;;24.60;;
57790;SDS011;43621;51.798;21.588;2022-11-14T23:43:03;38.30;;;23.10;;
57790;SDS011;43621;51.798;21.588;2022-11-14T23:47:08;37.20;;;22.70;;
57790;SDS011;43621;51.798;21.588;2022-11-14T23:51:13;37.90;;;22.70;;
57790;SDS011;43621;51.798;21.588;2022-11-14T23:55:19;40.20;;;24.80;;
57790;SDS011;43621;51.798;21.588;2022-11-14T23:59:24;37.20;;;22.10;;
